sensor_id;sensor_type;location;lat;lon;timestamp;pressure;altitude;pressure_sealevel;temperature
67822;BMP180;54434;50.096;20.082;2022-07-03T00:00:13;99532.60;;;12.80
67822;BMP180;54434;50.096;20.082;2022-07-03T00:03:08;99529.20;;;12.86
67822;BMP180;54434;50.096;20.082;2022-07-03T00:05:44;99522.20;;;12.90
67822;BMP180;54434;50.096;20.082;2022-07-03T00:08:21;99518.00;;;13.00
67822;BMP180;54434;50.096;20.082;2022-07-03T00:10:57;99522.40;;;13.00
67822;BMP180;54434;50.096;20.082;2022-07-03T00:13:33;99515.80;;;13.00
67822;BMP180;54434;50.096;20.082;2022-07-03T00:16:09;99515.60;;;13.00
67822;BMP180;54434;50.096;20.082;2022-07-03T00:18:46;99513.60;;;13.02
67822;BMP180;54434;50.096;20.082;2022-07-03T00:21:29;99515.60;;;13.00
67822;BMP180;54434;50.096;20.082;2022-07-03T00:24:13;99511.80;;;13.00
67822;BMP180;54434;50.096;20.082;2022-07-03T00:26:54;99514.00;;;13.00
67822;BMP180;54434;50.096;20.082;2022-07-03T00:29:41;99504.40;;;13.10
67822;BMP180;54434;50.096;20.082;2022-07-03T00:32:23;99509.80;;;13.10
67822;BMP180;54434;50.096;20.082;2022-07-03T00:35:00;99511.40;;;13.10
67822;BMP180;54434;50.096;20.082;2022-07-03T00:37:37;99508.00;;;13.10
67822;BMP180;54434;50.096;20.082;2022-07-03T00:40:15;99503.20;;;13.10
67822;BMP180;54434;50.096;20.082;2022-07-03T00:42:52;99504.60;;;13.10
67822;BMP180;54434;50.096;20.082;2022-07-03T00:45:29;99497.40;;;13.14
67822;BMP180;54434;50.096;20.082;2022-07-03T00:48:10;99498.20;;;13.20
67822;BMP180;54434;50.096;20.082;2022-07-03T00:50:52;99489.00;;;13.20
67822;BMP180;54434;50.096;20.082;2022-07-03T00:53:33;99485.60;;;13.30
67822;BMP180;54434;50.096;20.082;2022-07-03T00:56:14;99488.80;;;13.30
67822;BMP180;54434;50.096;20.082;2022-07-03T00:58:53;99491.00;;;13.40
67822;BMP180;54434;50.096;20.082;2022-07-03T01:01:34;99484.20;;;13.50
67822;BMP180;54434;50.096;20.082;2022-07-03T01:04:40;99480.20;;;13.60
67822;BMP180;54434;50.096;20.082;2022-07-03T01:07:45;99476.80;;;13.70
67822;BMP180;54434;50.096;20.082;2022-07-03T01:10:40;99473.80;;;13.80
67822;BMP180;54434;50.096;20.082;2022-07-03T01:13:36;99470.20;;;13.90
67822;BMP180;54434;50.096;20.082;2022-07-03T01:16:25;99465.60;;;14.00
67822;BMP180;54434;50.096;20.082;2022-07-03T01:19:27;99464.60;;;14.10
67822;BMP180;54434;50.096;20.082;2022-07-03T01:22:28;99466.60;;;14.14
67822;BMP180;54434;50.096;20.082;2022-07-03T01:25:26;99460.40;;;14.20
67822;BMP180;54434;50.096;20.082;2022-07-03T01:28:15;99454.40;;;14.30
67822;BMP180;54434;50.096;20.082;2022-07-03T01:30:53;99453.80;;;14.40
67822;BMP180;54434;50.096;20.082;2022-07-03T01:33:34;99454.80;;;14.50
67822;BMP180;54434;50.096;20.082;2022-07-03T01:36:15;99456.40;;;14.50
67822;BMP180;54434;50.096;20.082;2022-07-03T01:38:54;99448.80;;;14.60
67822;BMP180;54434;50.096;20.082;2022-07-03T01:41:32;99448.00;;;14.70
67822;BMP180;54434;50.096;20.082;2022-07-03T01:44:12;99452.20;;;14.80
67822;BMP180;54434;50.096;20.082;2022-07-03T01:46:49;99451.60;;;14.80
67822;BMP180;54434;50.096;20.082;2022-07-03T01:49:29;99456.80;;;14.90
67822;BMP180;54434;50.096;20.082;2022-07-03T01:52:10;99452.80;;;15.00
67822;BMP180;54434;50.096;20.082;2022-07-03T01:55:08;99455.60;;;15.02
67822;BMP180;54434;50.096;20.082;2022-07-03T01:57:50;99456.40;;;15.10
67822;BMP180;54434;50.096;20.082;2022-07-03T02:00:27;99457.60;;;15.18
67822;BMP180;54434;50.096;20.082;2022-07-03T02:03:06;99455.20;;;15.20
67822;BMP180;54434;50.096;20.082;2022-07-03T02:05:47;99456.20;;;15.30
67822;BMP180;54434;50.096;20.082;2022-07-03T02:08:40;99458.40;;;15.30
67822;BMP180;54434;50.096;20.082;2022-07-03T02:11:43;99456.40;;;15.30
67822;BMP180;54434;50.096;20.082;2022-07-03T02:14:24;99455.80;;;15.38
67822;BMP180;54434;50.096;20.082;2022-07-03T02:17:15;99457.80;;;15.40
67822;BMP180;54434;50.096;20.082;2022-07-03T02:19:59;99454.60;;;15.40
67822;BMP180;54434;50.096;20.082;2022-07-03T02:22:42;99454.60;;;15.40
67822;BMP180;54434;50.096;20.082;2022-07-03T02:25:23;99452.80;;;15.40
67822;BMP180;54434;50.096;20.082;2022-07-03T02:28:11;99448.80;;;15.40
67822;BMP180;54434;50.096;20.082;2022-07-03T02:30:57;99442.20;;;15.40
67822;BMP180;54434;50.096;20.082;2022-07-03T02:33:37;99438.00;;;15.40
67822;BMP180;54434;50.096;20.082;2022-07-03T02:36:21;99442.20;;;15.36
67822;BMP180;54434;50.096;20.082;2022-07-03T02:39:01;99447.60;;;15.30
67822;BMP180;54434;50.096;20.082;2022-07-03T02:41:49;99449.40;;;15.30
67822;BMP180;54434;50.096;20.082;2022-07-03T02:44:35;99442.80;;;15.30
67822;BMP180;54434;50.096;20.082;2022-07-03T02:47:27;99441.60;;;15.30
67822;BMP180;54434;50.096;20.082;2022-07-03T02:50:12;99436.20;;;15.30
67822;BMP180;54434;50.096;20.082;2022-07-03T02:53:04;99437.00;;;15.30
67822;BMP180;54434;50.096;20.082;2022-07-03T02:55:46;99434.20;;;15.20
67822;BMP180;54434;50.096;20.082;2022-07-03T02:58:50;99434.00;;;15.20
67822;BMP180;54434;50.096;20.082;2022-07-03T03:01:48;99430.00;;;15.20
67822;BMP180;54434;50.096;20.082;2022-07-03T03:04:32;99428.00;;;15.20
67822;BMP180;54434;50.096;20.082;2022-07-03T03:07:16;99428.20;;;15.20
67822;BMP180;54434;50.096;20.082;2022-07-03T03:09:52;99428.80;;;15.20
67822;BMP180;54434;50.096;20.082;2022-07-03T03:12:38;99428.40;;;15.20
67822;BMP180;54434;50.096;20.082;2022-07-03T03:15:19;99429.20;;;15.20
67822;BMP180;54434;50.096;20.082;2022-07-03T03:18:02;99430.80;;;15.28
67822;BMP180;54434;50.096;20.082;2022-07-03T03:20:40;99428.00;;;15.30
67822;BMP180;54434;50.096;20.082;2022-07-03T03:23:33;99432.40;;;15.30
67822;BMP180;54434;50.096;20.082;2022-07-03T03:26:11;99440.60;;;15.34
67822;BMP180;54434;50.096;20.082;2022-07-03T03:28:47;99438.60;;;15.40
67822;BMP180;54434;50.096;20.082;2022-07-03T03:31:24;99438.00;;;15.46
67822;BMP180;54434;50.096;20.082;2022-07-03T03:34:01;99435.60;;;15.50
67822;BMP180;54434;50.096;20.082;2022-07-03T03:36:37;99434.60;;;15.60
67822;BMP180;54434;50.096;20.082;2022-07-03T03:39:15;99430.60;;;15.68
67822;BMP180;54434;50.096;20.082;2022-07-03T03:41:53;99433.00;;;15.70
67822;BMP180;54434;50.096;20.082;2022-07-03T03:44:30;99431.20;;;15.80
67822;BMP180;54434;50.096;20.082;2022-07-03T03:47:09;99433.20;;;15.90
67822;BMP180;54434;50.096;20.082;2022-07-03T03:49:45;99429.40;;;16.00
67822;BMP180;54434;50.096;20.082;2022-07-03T03:52:21;99430.60;;;16.02
67822;BMP180;54434;50.096;20.082;2022-07-03T03:54:57;99431.40;;;16.10
67822;BMP180;54434;50.096;20.082;2022-07-03T03:57:33;99433.20;;;16.20
67822;BMP180;54434;50.096;20.082;2022-07-03T04:00:14;99432.60;;;16.30
67822;BMP180;54434;50.096;20.082;2022-07-03T04:02:50;99427.00;;;16.40
67822;BMP180;54434;50.096;20.082;2022-07-03T04:05:26;99422.60;;;16.50
67822;BMP180;54434;50.096;20.082;2022-07-03T04:08:03;99421.40;;;16.68
67822;BMP180;54434;50.096;20.082;2022-07-03T04:10:39;99423.40;;;16.80
67822;BMP180;54434;50.096;20.082;2022-07-03T04:13:16;99425.20;;;17.00
67822;BMP180;54434;50.096;20.082;2022-07-03T04:15:56;99430.00;;;17.14
67822;BMP180;54434;50.096;20.082;2022-07-03T04:18:32;99429.00;;;17.50
67822;BMP180;54434;50.096;20.082;2022-07-03T04:21:09;99429.00;;;17.90
67822;BMP180;54434;50.096;20.082;2022-07-03T04:23:45;99434.00;;;18.20
67822;BMP180;54434;50.096;20.082;2022-07-03T04:26:21;99432.60;;;18.42
67822;BMP180;54434;50.096;20.082;2022-07-03T04:28:57;99428.00;;;18.70
67822;BMP180;54434;50.096;20.082;2022-07-03T04:31:33;99432.20;;;19.00
67822;BMP180;54434;50.096;20.082;2022-07-03T04:34:09;99442.20;;;19.20
67822;BMP180;54434;50.096;20.082;2022-07-03T04:36:45;99436.40;;;19.40
67822;BMP180;54434;50.096;20.082;2022-07-03T04:39:21;99435.40;;;19.60
67822;BMP180;54434;50.096;20.082;2022-07-03T04:41:57;99431.80;;;19.70
67822;BMP180;54434;50.096;20.082;2022-07-03T04:44:33;99434.80;;;19.78
67822;BMP180;54434;50.096;20.082;2022-07-03T04:47:09;99431.00;;;19.86
67822;BMP180;54434;50.096;20.082;2022-07-03T04:49:46;99440.00;;;20.10
67822;BMP180;54434;50.096;20.082;2022-07-03T04:52:22;99435.20;;;20.28
67822;BMP180;54434;50.096;20.082;2022-07-03T04:55:05;99429.20;;;20.20
67822;BMP180;54434;50.096;20.082;2022-07-03T04:57:42;99434.80;;;20.10
67822;BMP180;54434;50.096;20.082;2022-07-03T05:00:19;99429.00;;;20.04
67822;BMP180;54434;50.096;20.082;2022-07-03T05:02:55;99424.80;;;20.08
67822;BMP180;54434;50.096;20.082;2022-07-03T05:05:31;99426.20;;;20.08
67822;BMP180;54434;50.096;20.082;2022-07-03T05:08:08;99424.00;;;20.26
67822;BMP180;54434;50.096;20.082;2022-07-03T05:10:44;99425.80;;;20.50
67822;BMP180;54434;50.096;20.082;2022-07-03T05:13:20;99420.80;;;20.92
67822;BMP180;54434;50.096;20.082;2022-07-03T05:15:57;99424.00;;;21.22
67822;BMP180;54434;50.096;20.082;2022-07-03T05:18:34;99418.20;;;21.40
67822;BMP180;54434;50.096;20.082;2022-07-03T05:21:11;99414.60;;;21.20
67822;BMP180;54434;50.096;20.082;2022-07-03T05:23:47;99408.20;;;21.32
67822;BMP180;54434;50.096;20.082;2022-07-03T05:26:23;99403.40;;;21.30
67822;BMP180;54434;50.096;20.082;2022-07-03T05:28:59;99403.00;;;21.10
67822;BMP180;54434;50.096;20.082;2022-07-03T05:31:35;99405.00;;;21.10
67822;BMP180;54434;50.096;20.082;2022-07-03T05:34:11;99407.20;;;21.20
67822;BMP180;54434;50.096;20.082;2022-07-03T05:36:47;99406.20;;;21.00
67822;BMP180;54434;50.096;20.082;2022-07-03T05:39:23;99407.60;;;21.20
67822;BMP180;54434;50.096;20.082;2022-07-03T05:42:09;99411.40;;;21.30
67822;BMP180;54434;50.096;20.082;2022-07-03T05:44:45;99409.60;;;21.60
67822;BMP180;54434;50.096;20.082;2022-07-03T05:47:21;99414.40;;;21.30
67822;BMP180;54434;50.096;20.082;2022-07-03T05:49:57;99411.80;;;21.00
67822;BMP180;54434;50.096;20.082;2022-07-03T05:52:33;99417.60;;;20.80
67822;BMP180;54434;50.096;20.082;2022-07-03T05:55:10;99416.60;;;20.80
67822;BMP180;54434;50.096;20.082;2022-07-03T05:57:46;99412.60;;;20.88
67822;BMP180;54434;50.096;20.082;2022-07-03T06:00:23;99411.00;;;20.80
67822;BMP180;54434;50.096;20.082;2022-07-03T06:02:59;99410.80;;;21.34
67822;BMP180;54434;50.096;20.082;2022-07-03T06:05:36;99419.00;;;22.00
67822;BMP180;54434;50.096;20.082;2022-07-03T06:08:12;99419.80;;;21.90
67822;BMP180;54434;50.096;20.082;2022-07-03T06:10:48;99417.80;;;22.20
67822;BMP180;54434;50.096;20.082;2022-07-03T06:13:25;99420.40;;;22.54
67822;BMP180;54434;50.096;20.082;2022-07-03T06:16:01;99423.40;;;23.14
67822;BMP180;54434;50.096;20.082;2022-07-03T06:18:36;99423.60;;;23.30
67822;BMP180;54434;50.096;20.082;2022-07-03T06:21:13;99419.80;;;23.02
67822;BMP180;54434;50.096;20.082;2022-07-03T06:23:49;99422.80;;;22.40
67822;BMP180;54434;50.096;20.082;2022-07-03T06:26:25;99421.80;;;22.00
67822;BMP180;54434;50.096;20.082;2022-07-03T06:29:01;99418.00;;;21.80
67822;BMP180;54434;50.096;20.082;2022-07-03T06:31:37;99417.60;;;21.70
67822;BMP180;54434;50.096;20.082;2022-07-03T06:34:13;99418.40;;;21.60
67822;BMP180;54434;50.096;20.082;2022-07-03T06:36:49;99416.60;;;21.50
67822;BMP180;54434;50.096;20.082;2022-07-03T06:39:25;99421.20;;;21.90
67822;BMP180;54434;50.096;20.082;2022-07-03T06:42:01;99419.60;;;21.92
67822;BMP180;54434;50.096;20.082;2022-07-03T06:44:37;99424.40;;;22.46
67822;BMP180;54434;50.096;20.082;2022-07-03T06:47:13;99417.60;;;22.82
67822;BMP180;54434;50.096;20.082;2022-07-03T06:49:49;99421.20;;;23.30
67822;BMP180;54434;50.096;20.082;2022-07-03T06:52:25;99415.00;;;23.08
67822;BMP180;54434;50.096;20.082;2022-07-03T06:55:02;99405.00;;;23.00
67822;BMP180;54434;50.096;20.082;2022-07-03T06:57:38;99405.80;;;23.30
67822;BMP180;54434;50.096;20.082;2022-07-03T07:00:17;99411.20;;;23.50
67822;BMP180;54434;50.096;20.082;2022-07-03T07:02:53;99409.80;;;23.80
67822;BMP180;54434;50.096;20.082;2022-07-03T07:05:34;99408.40;;;23.30
67822;BMP180;54434;50.096;20.082;2022-07-03T07:08:10;99406.40;;;23.10
67822;BMP180;54434;50.096;20.082;2022-07-03T07:10:45;99398.20;;;24.30
67822;BMP180;54434;50.096;20.082;2022-07-03T07:13:22;99399.00;;;25.12
67822;BMP180;54434;50.096;20.082;2022-07-03T07:15:58;99397.20;;;26.66
67822;BMP180;54434;50.096;20.082;2022-07-03T07:18:34;99392.80;;;28.06
67822;BMP180;54434;50.096;20.082;2022-07-03T07:21:11;99398.80;;;29.10
67822;BMP180;54434;50.096;20.082;2022-07-03T07:23:47;99390.80;;;29.40
67822;BMP180;54434;50.096;20.082;2022-07-03T07:26:23;99391.80;;;30.16
67822;BMP180;54434;50.096;20.082;2022-07-03T07:28:59;99394.00;;;30.20
67822;BMP180;54434;50.096;20.082;2022-07-03T07:31:35;99394.80;;;29.90
67822;BMP180;54434;50.096;20.082;2022-07-03T07:34:11;99388.00;;;29.08
67822;BMP180;54434;50.096;20.082;2022-07-03T07:36:47;99392.60;;;28.98
67822;BMP180;54434;50.096;20.082;2022-07-03T07:39:23;99389.40;;;28.02
67822;BMP180;54434;50.096;20.082;2022-07-03T07:42:00;99389.80;;;27.40
67822;BMP180;54434;50.096;20.082;2022-07-03T07:44:36;99386.60;;;28.08
67822;BMP180;54434;50.096;20.082;2022-07-03T07:47:12;99390.20;;;29.12
67822;BMP180;54434;50.096;20.082;2022-07-03T07:49:48;99387.80;;;29.14
67822;BMP180;54434;50.096;20.082;2022-07-03T07:52:24;99381.60;;;29.56
67822;BMP180;54434;50.096;20.082;2022-07-03T07:55:00;99387.80;;;30.30
67822;BMP180;54434;50.096;20.082;2022-07-03T07:57:40;99380.80;;;30.50
67822;BMP180;54434;50.096;20.082;2022-07-03T08:00:19;99378.40;;;31.38
67822;BMP180;54434;50.096;20.082;2022-07-03T08:02:56;99378.40;;;31.92
67822;BMP180;54434;50.096;20.082;2022-07-03T08:05:50;99378.00;;;32.80
67822;BMP180;54434;50.096;20.082;2022-07-03T08:08:26;99381.60;;;33.10
67822;BMP180;54434;50.096;20.082;2022-07-03T08:11:02;99378.40;;;33.46
67822;BMP180;54434;50.096;20.082;2022-07-03T08:13:38;99382.20;;;33.90
67822;BMP180;54434;50.096;20.082;2022-07-03T08:16:15;99387.00;;;33.14
67822;BMP180;54434;50.096;20.082;2022-07-03T08:18:52;99375.00;;;31.72
67822;BMP180;54434;50.096;20.082;2022-07-03T08:21:28;99371.60;;;31.90
67822;BMP180;54434;50.096;20.082;2022-07-03T08:24:05;99375.20;;;32.62
67822;BMP180;54434;50.096;20.082;2022-07-03T08:26:42;99383.20;;;33.04
67822;BMP180;54434;50.096;20.082;2022-07-03T08:29:18;99384.40;;;33.38
67822;BMP180;54434;50.096;20.082;2022-07-03T08:31:54;99386.80;;;34.42
67822;BMP180;54434;50.096;20.082;2022-07-03T08:34:31;99390.80;;;35.04
67822;BMP180;54434;50.096;20.082;2022-07-03T08:37:08;99393.40;;;33.18
67822;BMP180;54434;50.096;20.082;2022-07-03T08:39:47;99380.40;;;31.76
67822;BMP180;54434;50.096;20.082;2022-07-03T08:42:25;99380.80;;;30.64
67822;BMP180;54434;50.096;20.082;2022-07-03T08:45:14;99373.60;;;29.72
67822;BMP180;54434;50.096;20.082;2022-07-03T08:47:55;99373.60;;;29.20
67822;BMP180;54434;50.096;20.082;2022-07-03T08:50:36;99372.20;;;29.64
67822;BMP180;54434;50.096;20.082;2022-07-03T08:53:13;99374.40;;;30.50
67822;BMP180;54434;50.096;20.082;2022-07-03T08:55:50;99377.00;;;31.28
67822;BMP180;54434;50.096;20.082;2022-07-03T08:58:27;99378.00;;;31.42
67822;BMP180;54434;50.096;20.082;2022-07-03T09:01:05;99368.60;;;30.92
67822;BMP180;54434;50.096;20.082;2022-07-03T09:03:42;99370.40;;;31.20
67822;BMP180;54434;50.096;20.082;2022-07-03T09:06:19;99369.60;;;31.50
67822;BMP180;54434;50.096;20.082;2022-07-03T09:08:56;99365.80;;;31.22
67822;BMP180;54434;50.096;20.082;2022-07-03T09:11:33;99363.20;;;30.30
67822;BMP180;54434;50.096;20.082;2022-07-03T09:14:09;99357.20;;;29.80
67822;BMP180;54434;50.096;20.082;2022-07-03T09:16:45;99359.00;;;29.90
67822;BMP180;54434;50.096;20.082;2022-07-03T09:19:44;99352.00;;;29.90
67822;BMP180;54434;50.096;20.082;2022-07-03T09:22:27;99356.40;;;29.70
67822;BMP180;54434;50.096;20.082;2022-07-03T09:25:12;99361.20;;;29.10
67822;BMP180;54434;50.096;20.082;2022-07-03T09:27:55;99352.80;;;28.50
67822;BMP180;54434;50.096;20.082;2022-07-03T09:30:31;99347.40;;;27.90
67822;BMP180;54434;50.096;20.082;2022-07-03T09:33:08;99349.60;;;27.80
67822;BMP180;54434;50.096;20.082;2022-07-03T09:35:44;99347.80;;;27.50
67822;BMP180;54434;50.096;20.082;2022-07-03T09:38:28;99344.20;;;27.20
67822;BMP180;54434;50.096;20.082;2022-07-03T09:41:05;99342.80;;;27.00
67822;BMP180;54434;50.096;20.082;2022-07-03T09:43:44;99343.60;;;26.78
67822;BMP180;54434;50.096;20.082;2022-07-03T09:46:20;99342.20;;;26.10
67822;BMP180;54434;50.096;20.082;2022-07-03T09:48:57;99338.20;;;25.68
67822;BMP180;54434;50.096;20.082;2022-07-03T09:51:35;99334.00;;;25.60
67822;BMP180;54434;50.096;20.082;2022-07-03T09:54:17;99334.40;;;25.82
67822;BMP180;54434;50.096;20.082;2022-07-03T09:56:53;99332.40;;;26.18
67822;BMP180;54434;50.096;20.082;2022-07-03T09:59:29;99333.00;;;26.60
67822;BMP180;54434;50.096;20.082;2022-07-03T10:02:10;99336.40;;;26.84
67822;BMP180;54434;50.096;20.082;2022-07-03T10:04:47;99334.00;;;26.80
67822;BMP180;54434;50.096;20.082;2022-07-03T10:07:23;99335.40;;;26.40
67822;BMP180;54434;50.096;20.082;2022-07-03T10:09:59;99334.00;;;26.40
67822;BMP180;54434;50.096;20.082;2022-07-03T10:12:35;99333.40;;;26.30
67822;BMP180;54434;50.096;20.082;2022-07-03T10:15:14;99323.40;;;26.20
67822;BMP180;54434;50.096;20.082;2022-07-03T10:17:55;99320.00;;;26.20
67822;BMP180;54434;50.096;20.082;2022-07-03T10:20:36;99323.80;;;26.20
67822;BMP180;54434;50.096;20.082;2022-07-03T10:23:15;99320.00;;;26.24
67822;BMP180;54434;50.096;20.082;2022-07-03T10:25:52;99320.20;;;26.10
67822;BMP180;54434;50.096;20.082;2022-07-03T10:28:28;99320.20;;;26.00
67822;BMP180;54434;50.096;20.082;2022-07-03T10:31:06;99317.80;;;26.00
67822;BMP180;54434;50.096;20.082;2022-07-03T10:33:43;99310.40;;;26.00
67822;BMP180;54434;50.096;20.082;2022-07-03T10:36:26;99308.00;;;25.94
67822;BMP180;54434;50.096;20.082;2022-07-03T10:39:51;99302.80;;;26.00
67822;BMP180;54434;50.096;20.082;2022-07-03T10:42:38;99297.00;;;25.92
67822;BMP180;54434;50.096;20.082;2022-07-03T10:45:29;99296.40;;;26.02
67822;BMP180;54434;50.096;20.082;2022-07-03T10:48:07;99289.60;;;26.00
67822;BMP180;54434;50.096;20.082;2022-07-03T10:50:43;99285.00;;;25.80
67822;BMP180;54434;50.096;20.082;2022-07-03T10:53:28;99289.20;;;25.78
67822;BMP180;54434;50.096;20.082;2022-07-03T10:56:08;99285.40;;;25.60
67822;BMP180;54434;50.096;20.082;2022-07-03T10:58:59;99279.60;;;25.80
67822;BMP180;54434;50.096;20.082;2022-07-03T11:01:36;99276.20;;;25.50
67822;BMP180;54434;50.096;20.082;2022-07-03T11:04:13;99262.00;;;25.66
67822;BMP180;54434;50.096;20.082;2022-07-03T11:07:13;99259.80;;;25.70
67822;BMP180;54434;50.096;20.082;2022-07-03T11:13:06;99259.00;;;25.60
67822;BMP180;54434;50.096;20.082;2022-07-03T11:15:46;99253.80;;;25.24
67822;BMP180;54434;50.096;20.082;2022-07-03T11:18:36;99256.80;;;25.40
67822;BMP180;54434;50.096;20.082;2022-07-03T11:21:35;99253.40;;;25.60
67822;BMP180;54434;50.096;20.082;2022-07-03T11:24:35;99252.40;;;25.60
67822;BMP180;54434;50.096;20.082;2022-07-03T11:27:35;99247.00;;;25.70
67822;BMP180;54434;50.096;20.082;2022-07-03T11:30:12;99244.80;;;25.70
67822;BMP180;54434;50.096;20.082;2022-07-03T11:32:51;99245.40;;;25.80
67822;BMP180;54434;50.096;20.082;2022-07-03T11:35:55;99242.40;;;25.90
67822;BMP180;54434;50.096;20.082;2022-07-03T11:38:33;99242.00;;;26.00
67822;BMP180;54434;50.096;20.082;2022-07-03T11:41:15;99236.20;;;26.10
67822;BMP180;54434;50.096;20.082;2022-07-03T11:43:54;99238.00;;;26.08
67822;BMP180;54434;50.096;20.082;2022-07-03T11:46:33;99237.20;;;26.10
67822;BMP180;54434;50.096;20.082;2022-07-03T11:49:13;99246.80;;;25.90
67822;BMP180;54434;50.096;20.082;2022-07-03T11:52:04;99239.60;;;26.10
67822;BMP180;54434;50.096;20.082;2022-07-03T11:54:55;99244.80;;;26.20
67822;BMP180;54434;50.096;20.082;2022-07-03T11:57:31;99240.20;;;26.30
67822;BMP180;54434;50.096;20.082;2022-07-03T12:00:14;99234.60;;;26.30
67822;BMP180;54434;50.096;20.082;2022-07-03T12:02:56;99236.20;;;26.40
67822;BMP180;54434;50.096;20.082;2022-07-03T12:05:32;99233.80;;;26.30
67822;BMP180;54434;50.096;20.082;2022-07-03T12:08:08;99233.40;;;26.20
67822;BMP180;54434;50.096;20.082;2022-07-03T12:10:44;99228.40;;;26.20
67822;BMP180;54434;50.096;20.082;2022-07-03T12:13:26;99224.20;;;26.28
67822;BMP180;54434;50.096;20.082;2022-07-03T12:16:12;99220.20;;;26.50
67822;BMP180;54434;50.096;20.082;2022-07-03T12:18:52;99216.40;;;26.76
67822;BMP180;54434;50.096;20.082;2022-07-03T12:21:36;99214.20;;;26.80
67822;BMP180;54434;50.096;20.082;2022-07-03T12:24:16;99208.40;;;26.86
67822;BMP180;54434;50.096;20.082;2022-07-03T12:26:52;99206.20;;;26.90
67822;BMP180;54434;50.096;20.082;2022-07-03T12:29:31;99198.20;;;26.80
67822;BMP180;54434;50.096;20.082;2022-07-03T12:32:12;99192.80;;;26.70
67822;BMP180;54434;50.096;20.082;2022-07-03T12:34:49;99192.60;;;26.70
67822;BMP180;54434;50.096;20.082;2022-07-03T12:37:39;99190.00;;;26.80
67822;BMP180;54434;50.096;20.082;2022-07-03T12:40:17;99189.20;;;26.80
67822;BMP180;54434;50.096;20.082;2022-07-03T12:42:55;99181.20;;;26.80
67822;BMP180;54434;50.096;20.082;2022-07-03T12:45:33;99180.60;;;26.70
67822;BMP180;54434;50.096;20.082;2022-07-03T12:48:10;99180.60;;;26.72
67822;BMP180;54434;50.096;20.082;2022-07-03T12:50:53;99179.40;;;26.84
67822;BMP180;54434;50.096;20.082;2022-07-03T12:53:34;99179.40;;;27.00
67822;BMP180;54434;50.096;20.082;2022-07-03T12:56:12;99176.80;;;27.10
67822;BMP180;54434;50.096;20.082;2022-07-03T12:58:49;99177.40;;;27.10
67822;BMP180;54434;50.096;20.082;2022-07-03T13:01:44;99177.20;;;27.10
67822;BMP180;54434;50.096;20.082;2022-07-03T13:04:36;99182.00;;;27.20
67822;BMP180;54434;50.096;20.082;2022-07-03T13:07:12;99174.80;;;27.20
67822;BMP180;54434;50.096;20.082;2022-07-03T13:09:56;99169.00;;;27.20
67822;BMP180;54434;50.096;20.082;2022-07-03T13:12:35;99166.20;;;27.30
67822;BMP180;54434;50.096;20.082;2022-07-03T13:15:23;99160.00;;;27.40
67822;BMP180;54434;50.096;20.082;2022-07-03T13:18:04;99161.80;;;27.40
67822;BMP180;54434;50.096;20.082;2022-07-03T13:20:40;99157.60;;;27.50
67822;BMP180;54434;50.096;20.082;2022-07-03T13:23:16;99153.40;;;27.50
67822;BMP180;54434;50.096;20.082;2022-07-03T13:25:52;99151.00;;;27.30
67822;BMP180;54434;50.096;20.082;2022-07-03T13:28:28;99149.60;;;27.20
67822;BMP180;54434;50.096;20.082;2022-07-03T13:31:04;99149.40;;;27.20
67822;BMP180;54434;50.096;20.082;2022-07-03T13:33:40;99148.40;;;27.28
67822;BMP180;54434;50.096;20.082;2022-07-03T13:36:16;99148.20;;;27.30
67822;BMP180;54434;50.096;20.082;2022-07-03T13:38:53;99151.60;;;27.40
67822;BMP180;54434;50.096;20.082;2022-07-03T13:41:29;99148.20;;;27.40
67822;BMP180;54434;50.096;20.082;2022-07-03T13:44:05;99147.80;;;27.50
67822;BMP180;54434;50.096;20.082;2022-07-03T13:46:41;99143.80;;;27.56
67822;BMP180;54434;50.096;20.082;2022-07-03T13:49:24;99142.80;;;27.40
67822;BMP180;54434;50.096;20.082;2022-07-03T13:52:01;99140.00;;;27.40
67822;BMP180;54434;50.096;20.082;2022-07-03T13:54:37;99137.60;;;27.40
67822;BMP180;54434;50.096;20.082;2022-07-03T13:57:14;99142.00;;;27.50
67822;BMP180;54434;50.096;20.082;2022-07-03T13:59:50;99132.40;;;27.60
67822;BMP180;54434;50.096;20.082;2022-07-03T14:02:26;99129.40;;;27.80
67822;BMP180;54434;50.096;20.082;2022-07-03T14:05:02;99130.00;;;27.80
67822;BMP180;54434;50.096;20.082;2022-07-03T14:07:38;99128.40;;;27.80
67822;BMP180;54434;50.096;20.082;2022-07-03T14:14:17;99116.00;;;27.76
67822;BMP180;54434;50.096;20.082;2022-07-03T14:16:53;99117.40;;;27.78
67822;BMP180;54434;50.096;20.082;2022-07-03T14:19:29;99114.40;;;27.74
67822;BMP180;54434;50.096;20.082;2022-07-03T14:22:06;99111.60;;;27.80
67822;BMP180;54434;50.096;20.082;2022-07-03T14:24:42;99112.20;;;27.82
67822;BMP180;54434;50.096;20.082;2022-07-03T14:27:19;99109.80;;;28.00
67822;BMP180;54434;50.096;20.082;2022-07-03T14:30:15;99108.40;;;28.18
67822;BMP180;54434;50.096;20.082;2022-07-03T14:33:09;99104.20;;;28.10
67822;BMP180;54434;50.096;20.082;2022-07-03T14:35:44;99104.60;;;28.00
67822;BMP180;54434;50.096;20.082;2022-07-03T14:38:22;99108.20;;;28.00
67822;BMP180;54434;50.096;20.082;2022-07-03T14:41:01;99104.80;;;28.00
67822;BMP180;54434;50.096;20.082;2022-07-03T14:43:37;99096.00;;;27.90
67822;BMP180;54434;50.096;20.082;2022-07-03T14:46:13;99098.40;;;27.90
67822;BMP180;54434;50.096;20.082;2022-07-03T14:48:49;99097.40;;;27.90
67822;BMP180;54434;50.096;20.082;2022-07-03T14:51:25;99097.00;;;28.06
67822;BMP180;54434;50.096;20.082;2022-07-03T14:54:01;99095.40;;;28.10
67822;BMP180;54434;50.096;20.082;2022-07-03T14:56:53;99093.20;;;28.20
67822;BMP180;54434;50.096;20.082;2022-07-03T14:59:49;99092.60;;;28.20
67822;BMP180;54434;50.096;20.082;2022-07-03T15:02:44;99097.80;;;28.18
67822;BMP180;54434;50.096;20.082;2022-07-03T15:05:20;99093.20;;;28.20
67822;BMP180;54434;50.096;20.082;2022-07-03T15:11:20;99086.20;;;28.30
67822;BMP180;54434;50.096;20.082;2022-07-03T15:14:10;99085.80;;;28.40
67822;BMP180;54434;50.096;20.082;2022-07-03T15:16:49;99081.40;;;28.50
67822;BMP180;54434;50.096;20.082;2022-07-03T15:19:26;99081.80;;;28.50